Time,TemperatureF,DewpointF,PressureIn,WindDirection,WindDirectionDegrees,WindSpeedMPH,WindSpeedGustMPH,Humidity,HourlyPrecipIn,Conditions,Clouds,dailyrainin,SoftwareType,DateUTC
2013-07-06 00:02:00,69.5,68.6,30.99,NW,321,0.0,0.0,97,0.00,RA,RA,0.00,WeatherDisplay:10.37,2013-07-06 04:02:00,
2013-07-06 00:07:00,69.4,68.5,30.99,NW,321,0.0,0.0,97,0.00,RA,RA,0.00,WeatherDisplay:10.37,2013-07-06 04:07:00,
2013-07-06 00:12:00,69.4,68.5,30.99,NW,321,0.0,0.0,97,0.00,CLR,CLR,0.00,WeatherDisplay:10.37,2013-07-06 04:12:00,
2013-07-06 00:17:00,69.4,68.5,30.99,NW,321,0.0,0.0,97,0.00,CLR,CLR,0.00,WeatherDisplay:10.37,2013-07-06 04:17:00,
2013-07-06 00:22:00,69.3,68.4,30.99,NW,321,0.0,0.0,97,0.00,CLR,CLR,0.00,WeatherDisplay:10.37,2013-07-06 04:22:00,
2013-07-06 00:27:00,69.2,68.3,30.99,NW,321,0.0,0.0,97,0.00,CLR,CLR,0.00,WeatherDisplay:10.37,2013-07-06 04:27:00,
2013-07-06 00:32:00,69.2,68.3,30.98,NW,321,0.0,0.0,97,0.00,CLR,CLR,0.00,WeatherDisplay:10.37,2013-07-06 04:32:00,
2013-07-06 00:37:00,69.2,68.3,30.98,NW,321,0.0,0.0,97,0.00,CLR,CLR,0.00,WeatherDisplay:10.37,2013-07-06 04:37:00,
2013-07-06 00:42:00,69.1,68.2,30.98,NW,321,0.0,0.0,97,0.00,CLR,CLR,0.00,WeatherDisplay:10.37,2013-07-06 04:42:00,
2013-07-06 00:47:00,69.0,68.1,30.98,NW,321,0.0,0.0,97,0.00,CLR,CLR,0.00,WeatherDisplay:10.37,2013-07-06 04:47:00,
2013-07-06 00:52:00,69.0,68.1,30.98,NW,321,0.0,0.0,97,0.00,CLR,CLR,0.00,WeatherDisplay:10.37,2013-07-06 04:52:00,
2013-07-06 00:57:00,68.9,68.0,30.98,NW,321,0.0,0.0,97,0.00,CLR,CLR,0.00,WeatherDisplay:10.37,2013-07-06 04:57:00,
2013-07-06 01:02:00,68.8,67.9,30.98,NW,321,0.0,0.0,97,0.00,CLR,CLR,0.00,WeatherDisplay:10.37,2013-07-06 05:02:00,
2013-07-06 01:07:00,68.8,67.9,30.98,NW,321,0.0,0.0,97,0.00,CLR,CLR,0.00,WeatherDisplay:10.37,2013-07-06 05:07:00,
2013-07-06 01:12:00,68.8,67.9,30.98,NW,321,0.0,0.0,97,0.00,CLR,CLR,0.00,WeatherDisplay:10.37,2013-07-06 05:12:00,
2013-07-06 01:17:00,68.7,67.8,30.97,NW,321,0.0,0.0,97,0.00,CLR,CLR,0.00,WeatherDisplay:10.37,2013-07-06 05:17:00,
2013-07-06 01:22:00,68.5,67.6,30.98,NW,321,0.0,0.0,97,0.00,CLR,CLR,0.00,WeatherDisplay:10.37,2013-07-06 05:22:00,
2013-07-06 01:27:00,68.4,67.5,30.98,NW,321,0.0,0.0,97,0.00,CLR,CLR,0.00,WeatherDisplay:10.37,2013-07-06 05:27:00,
2013-07-06 01:32:00,68.3,67.4,30.98,NW,321,0.0,0.0,97,0.00,CLR,CLR,0.00,WeatherDisplay:10.37,2013-07-06 05:32:00,
2013-07-06 01:37:00,68.2,67.3,30.98,NW,321,0.0,0.0,97,0.00,CLR,CLR,0.00,WeatherDisplay:10.37,2013-07-06 05:37:00,
2013-07-06 01:42:00,68.1,67.2,30.98,NW,321,0.0,0.0,97,0.00,CLR,CLR,0.00,WeatherDisplay:10.37,2013-07-06 05:42:00,
2013-07-06 01:47:00,68.1,67.2,30.98,NW,321,0.0,0.0,97,0.00,CLR,CLR,0.00,WeatherDisplay:10.37,2013-07-06 05:47:00,
2013-07-06 01:52:00,68.0,67.1,30.98,NW,321,0.0,0.0,97,0.00,CLR,CLR,0.00,WeatherDisplay:10.37,2013-07-06 05:52:00,
2013-07-06 01:57:00,68.0,67.1,30.98,NW,321,0.0,0.0,97,0.00,CLR,CLR,0.00,WeatherDisplay:10.37,2013-07-06 05:57:00,
2013-07-06 02:02:00,67.9,67.0,30.98,NW,321,0.0,0.0,97,0.00,CLR,CLR,0.00,WeatherDisplay:10.37,2013-07-06 06:02:00,
2013-07-06 02:07:00,67.9,67.3,30.99,NW,321,0.0,0.0,98,0.00,CLR,CLR,0.00,WeatherDisplay:10.37,2013-07-06 06:07:00,
2013-07-06 02:12:00,67.8,67.3,30.99,NW,321,0.0,0.0,98,0.00,CLR,CLR,0.00,WeatherDisplay:10.37,2013-07-06 06:12:00,
2013-07-06 02:17:00,67.7,66.8,30.99,NW,321,0.0,0.0,97,0.00,CLR,CLR,0.00,WeatherDisplay:10.37,2013-07-06 06:17:00,
2013-07-06 02:22:00,67.6,66.7,30.99,NW,321,0.0,0.0,97,0.00,CLR,CLR,0.00,WeatherDisplay:10.37,2013-07-06 06:22:00,
2013-07-06 02:27:00,67.6,66.7,30.99,NW,321,0.0,0.0,97,0.00,CLR,CLR,0.00,WeatherDisplay:10.37,2013-07-06 06:27:00,
2013-07-06 02:32:00,67.5,66.6,30.99,NW,321,0.0,0.0,97,0.00,CLR,CLR,0.00,WeatherDisplay:10.37,2013-07-06 06:32:00,
2013-07-06 02:37:00,67.4,66.8,30.99,NW,321,0.0,0.0,98,0.00,CLR,CLR,0.00,WeatherDisplay:10.37,2013-07-06 06:37:00,
2013-07-06 02:42:00,67.3,66.7,30.99,NW,321,0.0,0.0,98,0.00,CLR,CLR,0.00,WeatherDisplay:10.37,2013-07-06 06:42:00,
2013-07-06 02:47:00,67.4,66.8,30.99,NW,321,0.0,0.0,98,0.00,CLR,CLR,0.00,WeatherDisplay:10.37,2013-07-06 06:47:00,
2013-07-06 02:52:00,67.5,66.9,30.99,NW,321,0.0,0.0,98,0.00,CLR,CLR,0.00,WeatherDisplay:10.37,2013-07-06 06:52:00,
2013-07-06 02:57:00,67.5,66.9,30.99,NW,321,0.0,0.0,98,0.00,CLR,CLR,0.00,WeatherDisplay:10.37,2013-07-06 06:57:00,
2013-07-06 03:07:00,67.7,67.1,30.99,NW,321,0.0,0.0,98,0.00,CLR,CLR,0.00,WeatherDisplay:10.37,2013-07-06 07:07:00,
2013-07-06 03:12:00,67.8,67.2,30.99,NW,321,0.0,0.0,98,0.00,CLR,CLR,0.00,WeatherDisplay:10.37,2013-07-06 07:12:00,
2013-07-06 03:17:00,67.8,67.2,30.99,NW,321,0.0,0.0,98,0.00,CLR,CLR,0.00,WeatherDisplay:10.37,2013-07-06 07:17:00,
2013-07-06 03:22:00,67.8,67.2,30.99,NW,321,0.0,0.0,98,0.00,CLR,CLR,0.00,WeatherDisplay:10.37,2013-07-06 07:22:00,
2013-07-06 03:27:00,67.7,67.1,30.99,NW,321,0.0,0.0,98,0.00,CLR,CLR,0.00,WeatherDisplay:10.37,2013-07-06 07:27:00,
2013-07-06 03:32:00,67.5,66.9,31.00,NW,321,0.0,0.0,98,0.00,CLR,CLR,0.00,WeatherDisplay:10.37,2013-07-06 07:32:00,
2013-07-06 03:37:00,67.6,67.0,31.00,NW,321,0.0,0.0,98,0.01,RA,RA,0.01,WeatherDisplay:10.37,2013-07-06 07:37:00,
2013-07-06 03:42:00,67.5,66.9,31.00,NW,321,0.0,0.0,98,0.00,RA,RA,0.01,WeatherDisplay:10.37,2013-07-06 07:42:00,
2013-07-06 03:47:00,67.4,66.8,31.00,NW,321,0.0,0.0,98,0.00,CLR,CLR,0.01,WeatherDisplay:10.37,2013-07-06 07:47:00,
2013-07-06 03:52:00,67.4,66.8,31.00,NW,321,0.0,0.0,98,0.00,CLR,CLR,0.01,WeatherDisplay:10.37,2013-07-06 07:52:00,
2013-07-06 03:57:00,67.4,66.8,31.00,NW,321,0.0,0.0,98,0.00,CLR,CLR,0.01,WeatherDisplay:10.37,2013-07-06 07:57:00,
2013-07-06 04:02:00,67.5,66.9,31.00,NW,321,0.0,0.0,98,0.00,CLR,CLR,0.01,WeatherDisplay:10.37,2013-07-06 08:02:00,
2013-07-06 04:07:00,67.5,66.9,30.99,NW,321,0.0,0.0,98,0.00,CLR,CLR,0.01,WeatherDisplay:10.37,2013-07-06 08:07:00,
2013-07-06 04:12:00,67.7,67.1,30.99,NW,321,0.0,0.0,98,0.00,CLR,CLR,0.01,WeatherDisplay:10.37,2013-07-06 08:12:00,
2013-07-06 04:17:00,67.7,67.1,31.00,NW,321,0.0,0.0,98,0.00,CLR,CLR,0.01,WeatherDisplay:10.37,2013-07-06 08:17:00,
2013-07-06 04:22:00,67.8,67.2,31.00,NW,321,0.0,1.0,98,0.00,CLR,CLR,0.01,WeatherDisplay:10.37,2013-07-06 08:22:00,
2013-07-06 04:27:00,67.9,67.3,31.00,NW,320,0.0,3.0,98,0.00,CLR,CLR,0.01,WeatherDisplay:10.37,2013-07-06 08:27:00,
2013-07-06 04:32:00,67.9,67.3,31.00,WNW,296,1.0,4.0,98,0.00,CLR,CLR,0.01,WeatherDisplay:10.37,2013-07-06 08:32:00,
2013-07-06 04:37:00,68.0,67.4,31.00,WNW,289,0.0,3.0,98,0.00,CLR,CLR,0.01,WeatherDisplay:10.37,2013-07-06 08:37:00,
2013-07-06 04:42:00,68.0,67.4,31.00,WNW,288,0.0,1.0,98,0.00,CLR,CLR,0.01,WeatherDisplay:10.37,2013-07-06 08:42:00,
2013-07-06 04:47:00,68.0,67.4,30.99,WNW,288,0.0,2.0,98,0.00,CLR,CLR,0.01,WeatherDisplay:10.37,2013-07-06 08:47:00,
2013-07-06 04:52:00,68.0,67.4,30.99,WNW,288,0.0,0.0,98,0.00,CLR,CLR,0.01,WeatherDisplay:10.37,2013-07-06 08:52:00,
2013-07-06 04:57:00,68.0,67.4,30.99,WNW,288,0.0,0.0,98,0.00,CLR,CLR,0.01,WeatherDisplay:10.37,2013-07-06 08:57:00,
2013-07-06 05:02:00,68.0,67.4,30.99,WNW,288,0.0,0.0,98,0.00,CLR,CLR,0.01,WeatherDisplay:10.37,2013-07-06 09:02:00,
2013-07-06 05:07:00,68.0,67.4,30.99,WNW,288,0.0,0.0,98,0.00,CLR,CLR,0.01,WeatherDisplay:10.37,2013-07-06 09:07:00,
2013-07-06 05:12:00,68.0,67.4,30.99,WNW,288,0.0,0.0,98,0.00,CLR,CLR,0.01,WeatherDisplay:10.37,2013-07-06 09:12:00,
2013-07-06 05:17:00,68.0,67.4,30.99,WNW,288,0.0,0.0,98,0.00,CLR,CLR,0.01,WeatherDisplay:10.37,2013-07-06 09:17:00,
2013-07-06 05:22:00,68.0,67.4,30.99,WNW,288,0.0,0.0,98,0.00,CLR,CLR,0.01,WeatherDisplay:10.37,2013-07-06 09:22:00,
2013-07-06 05:27:00,67.9,67.3,30.99,WNW,288,0.0,0.0,98,0.00,CLR,CLR,0.01,WeatherDisplay:10.37,2013-07-06 09:27:00,
2013-07-06 05:32:00,67.9,67.3,30.99,WNW,288,0.0,0.0,98,0.00,CLR,CLR,0.01,WeatherDisplay:10.37,2013-07-06 09:32:00,
2013-07-06 05:37:00,67.9,67.3,30.99,WNW,288,0.0,0.0,98,0.00,CLR,CLR,0.01,WeatherDisplay:10.37,2013-07-06 09:37:00,
2013-07-06 05:42:00,67.9,67.3,30.99,WNW,288,0.0,0.0,98,0.00,CLR,CLR,0.01,WeatherDisplay:10.37,2013-07-06 09:42:00,
2013-07-06 05:47:00,67.9,67.3,30.99,WNW,288,0.0,0.0,98,0.00,CLR,CLR,0.01,WeatherDisplay:10.37,2013-07-06 09:47:00,
2013-07-06 05:52:00,68.0,67.4,30.99,WNW,288,0.0,0.0,98,0.00,CLR,CLR,0.01,WeatherDisplay:10.37,2013-07-06 09:52:00,
2013-07-06 05:57:00,68.0,67.7,30.99,WNW,288,0.0,0.0,99,0.00,CLR,CLR,0.01,WeatherDisplay:10.37,2013-07-06 09:57:00,
2013-07-06 06:02:00,68.0,67.8,30.99,WNW,288,0.0,1.0,99,0.00,CLR,CLR,0.01,WeatherDisplay:10.37,2013-07-06 10:02:00,
2013-07-06 06:07:00,68.1,67.8,30.99,WNW,288,0.0,1.0,99,0.00,CLR,CLR,0.01,WeatherDisplay:10.37,2013-07-06 10:07:00,
2013-07-06 06:12:00,68.1,67.8,30.99,WNW,288,0.0,0.0,99,0.00,CLR,CLR,0.01,WeatherDisplay:10.37,2013-07-06 10:12:00,
2013-07-06 06:17:00,68.1,67.8,30.99,WNW,288,0.0,0.0,99,0.00,CLR,CLR,0.01,WeatherDisplay:10.37,2013-07-06 10:17:00,
2013-07-06 06:22:00,68.1,67.8,30.99,WNW,288,0.0,0.0,99,0.00,CLR,CLR,0.01,WeatherDisplay:10.37,2013-07-06 10:22:00,
2013-07-06 06:27:00,68.2,67.6,30.99,WNW,288,0.0,0.0,98,0.00,CLR,CLR,0.01,WeatherDisplay:10.37,2013-07-06 10:27:00,
2013-07-06 06:32:00,68.3,67.7,30.99,WNW,288,0.0,0.0,98,0.00,CLR,CLR,0.01,WeatherDisplay:10.37,2013-07-06 10:32:00,
2013-07-06 06:37:00,68.3,67.7,30.99,WNW,288,0.0,0.0,98,0.00,CLR,CLR,0.01,WeatherDisplay:10.37,2013-07-06 10:37:00,
2013-07-06 06:42:00,68.3,67.7,30.99,WNW,288,0.0,0.0,98,0.00,CLR,CLR,0.01,WeatherDisplay:10.37,2013-07-06 10:42:00,
2013-07-06 06:47:00,68.3,67.7,30.99,WNW,288,0.0,0.0,98,0.00,CLR,CLR,0.01,WeatherDisplay:10.37,2013-07-06 10:47:00,
2013-07-06 06:52:00,68.4,67.8,30.99,WNW,288,0.0,0.0,98,0.00,CLR,CLR,0.01,WeatherDisplay:10.37,2013-07-06 10:52:00,
2013-07-06 06:57:00,68.4,67.8,31.00,WNW,288,0.0,0.0,98,0.00,CLR,CLR,0.01,WeatherDisplay:10.37,2013-07-06 10:57:00,
2013-07-06 07:02:00,68.5,67.9,31.00,WNW,288,0.0,0.0,98,0.00,CLR,CLR,0.01,WeatherDisplay:10.37,2013-07-06 11:02:00,
2013-07-06 07:07:00,68.5,68.2,31.00,WNW,288,0.0,3.0,99,0.00,CLR,CLR,0.01,WeatherDisplay:10.37,2013-07-06 11:07:00,
2013-07-06 07:12:00,68.6,68.3,31.00,WNW,288,0.0,1.0,99,0.00,CLR,CLR,0.01,WeatherDisplay:10.37,2013-07-06 11:12:00,
2013-07-06 07:17:00,68.6,68.3,31.00,WNW,297,0.0,1.0,99,0.00,CLR,CLR,0.01,WeatherDisplay:10.37,2013-07-06 11:17:00,
2013-07-06 07:22:00,68.7,68.4,31.00,WNW,285,1.0,3.0,99,0.00,CLR,CLR,0.01,WeatherDisplay:10.37,2013-07-06 11:22:00,
2013-07-06 07:27:00,68.8,68.5,31.00,SSW,212,0.0,3.0,99,0.00,CLR,CLR,0.01,WeatherDisplay:10.37,2013-07-06 11:27:00,
2013-07-06 07:32:00,68.9,68.6,31.00,SSW,197,1.0,3.0,99,0.00,CLR,CLR,0.01,WeatherDisplay:10.37,2013-07-06 11:32:00,
2013-07-06 07:37:00,69.0,68.7,31.00,SSW,197,1.0,4.0,99,0.00,CLR,CLR,0.01,WeatherDisplay:10.37,2013-07-06 11:37:00,
2013-07-06 07:42:00,69.0,68.7,31.01,South,188,0.0,5.0,99,0.00,CLR,CLR,0.01,WeatherDisplay:10.37,2013-07-06 11:42:00,
2013-07-06 07:47:00,69.2,68.9,31.01,South,179,1.0,6.0,99,0.00,CLR,CLR,0.01,WeatherDisplay:10.37,2013-07-06 11:47:00,
2013-07-06 07:52:00,69.3,69.0,31.01,South,178,1.0,6.0,99,0.00,CLR,CLR,0.01,WeatherDisplay:10.37,2013-07-06 11:52:00,
2013-07-06 07:57:00,69.4,69.1,31.00,South,178,0.0,0.0,99,0.00,CLR,CLR,0.01,WeatherDisplay:10.37,2013-07-06 11:57:00,
2013-07-06 08:02:00,69.4,69.1,31.01,South,178,0.0,1.0,99,0.00,CLR,CLR,0.01,WeatherDisplay:10.37,2013-07-06 12:02:00,
2013-07-06 08:07:00,69.5,69.2,31.00,South,178,1.0,2.0,99,0.00,CLR,CLR,0.01,WeatherDisplay:10.37,2013-07-06 12:07:00,
2013-07-06 08:12:00,69.6,69.3,31.00,South,178,1.0,4.0,99,0.00,CLR,CLR,0.01,WeatherDisplay:10.37,2013-07-06 12:12:00,
2013-07-06 08:17:00,69.7,69.4,31.00,South,178,0.0,4.0,99,0.00,CLR,CLR,0.01,WeatherDisplay:10.37,2013-07-06 12:17:00,
2013-07-06 08:22:00,69.8,69.5,31.00,South,178,0.0,1.0,99,0.00,CLR,CLR,0.01,WeatherDisplay:10.37,2013-07-06 12:22:00,
2013-07-06 08:27:00,69.9,69.6,31.00,South,178,0.0,1.0,99,0.00,CLR,CLR,0.01,WeatherDisplay:10.37,2013-07-06 12:27:00,
2013-07-06 08:32:00,70.1,69.8,31.00,South,178,1.0,5.0,99,0.00,CLR,CLR,0.01,WeatherDisplay:10.37,2013-07-06 12:32:00,
2013-07-06 08:37:00,70.4,70.1,31.00,South,178,5.0,7.0,99,0.00,CLR,CLR,0.01,WeatherDisplay:10.37,2013-07-06 12:37:00,
2013-07-06 08:42:00,70.7,70.4,31.00,South,181,5.0,7.0,99,0.00,CLR,CLR,0.01,WeatherDisplay:10.37,2013-07-06 12:42:00,
2013-07-06 08:47:00,70.8,70.5,31.01,South,184,6.0,7.0,99,0.00,CLR,CLR,0.01,WeatherDisplay:10.37,2013-07-06 12:47:00,
2013-07-06 08:52:00,70.9,70.6,31.01,South,183,3.0,7.0,99,0.00,CLR,CLR,0.01,WeatherDisplay:10.37,2013-07-06 12:52:00,
2013-07-06 08:57:00,71.0,70.7,31.01,South,179,3.0,7.0,99,0.00,CLR,CLR,0.01,WeatherDisplay:10.37,2013-07-06 12:57:00,
2013-07-06 09:02:00,71.0,70.7,31.01,South,180,3.0,6.0,99,0.00,CLR,CLR,0.01,WeatherDisplay:10.37,2013-07-06 13:02:00,
2013-07-06 09:07:00,71.0,70.7,31.01,South,182,3.0,5.0,99,0.00,CLR,CLR,0.01,WeatherDisplay:10.37,2013-07-06 13:07:00,
2013-07-06 09:12:00,71.3,71.0,31.01,South,178,5.0,8.0,99,0.00,CLR,CLR,0.01,WeatherDisplay:10.37,2013-07-06 13:12:00,
2013-07-06 09:17:00,71.3,71.0,31.01,South,178,6.0,8.0,99,0.00,CLR,CLR,0.01,WeatherDisplay:10.37,2013-07-06 13:17:00,
2013-07-06 09:22:00,71.3,71.0,31.01,South,188,3.0,7.0,99,0.00,CLR,CLR,0.01,WeatherDisplay:10.37,2013-07-06 13:22:00,
2013-07-06 09:27:00,71.3,70.7,31.01,South,187,5.0,8.0,98,0.00,CLR,CLR,0.01,WeatherDisplay:10.37,2013-07-06 13:27:00,
2013-07-06 09:32:00,71.4,70.8,31.01,South,172,6.0,7.0,98,0.00,CLR,CLR,0.01,WeatherDisplay:10.37,2013-07-06 13:32:00,
2013-07-06 09:37:00,71.5,70.9,31.01,South,169,6.0,7.0,98,0.00,CLR,CLR,0.01,WeatherDisplay:10.37,2013-07-06 13:37:00,
2013-07-06 09:42:00,71.5,70.9,31.01,South,170,2.0,8.0,98,0.00,CLR,CLR,0.01,WeatherDisplay:10.37,2013-07-06 13:42:00,
2013-07-06 09:47:00,71.8,71.2,31.01,SSE,168,7.0,9.0,98,0.00,CLR,CLR,0.01,WeatherDisplay:10.37,2013-07-06 13:47:00,
2013-07-06 09:52:00,72.0,71.4,31.01,South,170,6.0,9.0,98,0.00,CLR,CLR,0.01,WeatherDisplay:10.37,2013-07-06 13:52:00,
2013-07-06 09:57:00,72.1,71.2,31.01,South,175,1.0,7.0,97,0.00,CLR,CLR,0.01,WeatherDisplay:10.37,2013-07-06 13:57:00,
2013-07-06 10:02:00,72.4,71.5,31.01,South,181,3.0,8.0,97,0.00,CLR,CLR,0.01,WeatherDisplay:10.37,2013-07-06 14:02:00,
2013-07-06 10:07:00,72.7,71.5,31.01,South,182,2.0,5.0,96,0.00,CLR,CLR,0.01,WeatherDisplay:10.37,2013-07-06 14:07:00,
2013-07-06 10:12:00,72.8,71.6,31.01,South,172,5.0,7.0,96,0.00,CLR,CLR,0.01,WeatherDisplay:10.37,2013-07-06 14:12:00,
2013-07-06 10:17:00,73.0,71.5,31.00,SSE,163,2.0,5.0,95,0.00,CLR,CLR,0.01,WeatherDisplay:10.37,2013-07-06 14:17:00,
2013-07-06 10:22:00,73.1,71.6,31.00,SSE,159,0.0,5.0,95,0.00,CLR,CLR,0.01,WeatherDisplay:10.37,2013-07-06 14:22:00,
2013-07-06 10:27:00,73.3,71.5,31.00,SSE,159,2.0,6.0,94,0.00,CLR,CLR,0.01,WeatherDisplay:10.37,2013-07-06 14:27:00,
2013-07-06 10:32:00,73.7,71.9,31.00,SSE,160,2.0,6.0,94,0.00,CLR,CLR,0.01,WeatherDisplay:10.37,2013-07-06 14:32:00,
2013-07-06 10:37:00,73.9,71.7,31.00,SSE,160,5.0,7.0,93,0.00,CLR,CLR,0.01,WeatherDisplay:10.37,2013-07-06 14:37:00,
2013-07-06 10:42:00,74.3,72.1,31.00,SSE,160,5.0,6.0,93,0.00,CLR,CLR,0.01,WeatherDisplay:10.37,2013-07-06 14:42:00,
2013-07-06 10:47:00,74.5,72.0,31.00,SSE,161,2.0,7.0,92,0.00,CLR,CLR,0.01,WeatherDisplay:10.37,2013-07-06 14:47:00,
2013-07-06 10:52:00,74.8,72.0,31.00,SSE,162,3.0,7.0,91,0.00,CLR,CLR,0.01,WeatherDisplay:10.37,2013-07-06 14:52:00,
2013-07-06 10:57:00,75.0,71.9,31.00,SSE,162,0.0,6.0,90,0.00,CLR,CLR,0.01,WeatherDisplay:10.37,2013-07-06 14:57:00,
2013-07-06 11:02:00,75.4,72.2,31.00,SSE,148,3.0,8.0,90,0.00,CLR,CLR,0.01,WeatherDisplay:10.37,2013-07-06 15:02:00,
2013-07-06 11:07:00,75.7,72.2,31.00,SE,142,5.0,7.0,89,0.00,CLR,CLR,0.01,WeatherDisplay:10.37,2013-07-06 15:07:00,
2013-07-06 11:12:00,75.9,72.1,31.00,SSE,149,5.0,7.0,88,0.00,CLR,CLR,0.01,WeatherDisplay:10.37,2013-07-06 15:12:00,
2013-07-06 11:17:00,76.2,72.1,31.00,SSE,161,5.0,7.0,87,0.00,CLR,CLR,0.01,WeatherDisplay:10.37,2013-07-06 15:17:00,
2013-07-06 11:22:00,76.6,72.8,31.00,SSE,164,0.0,5.0,88,0.00,CLR,CLR,0.01,WeatherDisplay:10.37,2013-07-06 15:22:00,
2013-07-06 11:27:00,76.7,72.2,31.00,SSE,158,2.0,9.0,86,0.00,CLR,CLR,0.01,WeatherDisplay:10.37,2013-07-06 15:27:00,
2013-07-06 11:32:00,76.8,71.6,31.00,SSE,164,2.0,8.0,84,0.00,CLR,CLR,0.01,WeatherDisplay:10.37,2013-07-06 15:32:00,
2013-07-06 11:37:00,77.0,72.1,31.00,SSE,167,2.0,7.0,85,0.00,CLR,CLR,0.01,WeatherDisplay:10.37,2013-07-06 15:37:00,
2013-07-06 11:42:00,77.1,71.6,31.00,SSE,161,3.0,7.0,83,0.00,CLR,CLR,0.01,WeatherDisplay:10.37,2013-07-06 15:42:00,
2013-07-06 11:47:00,77.2,72.0,31.00,SSE,165,3.0,8.0,84,0.00,CLR,CLR,0.01,WeatherDisplay:10.37,2013-07-06 15:47:00,
2013-07-06 11:52:00,77.4,72.2,31.00,South,176,3.0,9.0,84,0.00,CLR,CLR,0.01,WeatherDisplay:10.37,2013-07-06 15:52:00,
2013-07-06 11:57:00,77.7,72.8,31.00,SSE,148,6.0,8.0,85,0.00,CLR,CLR,0.01,WeatherDisplay:10.37,2013-07-06 15:57:00,
2013-07-06 12:07:00,78.3,72.3,31.00,South,186,3.0,8.0,82,0.00,CLR,CLR,0.01,WeatherDisplay:10.37,2013-07-06 16:07:00,
2013-07-06 12:12:00,78.4,72.8,31.00,South,189,6.0,8.0,83,0.00,CLR,CLR,0.01,WeatherDisplay:10.37,2013-07-06 16:12:00,
2013-07-06 12:17:00,78.5,72.6,31.00,SSW,200,1.0,6.0,82,0.00,CLR,CLR,0.01,WeatherDisplay:10.37,2013-07-06 16:17:00,
2013-07-06 12:22:00,79.1,73.5,30.99,South,187,1.0,7.0,83,0.00,CLR,CLR,0.01,WeatherDisplay:10.37,2013-07-06 16:22:00,
2013-07-06 12:27:00,79.3,72.6,30.99,SE,124,2.0,8.0,80,0.00,CLR,CLR,0.01,WeatherDisplay:10.37,2013-07-06 16:27:00,
2013-07-06 12:32:00,79.1,72.4,30.99,SE,135,3.0,12.0,80,0.00,CLR,CLR,0.01,WeatherDisplay:10.37,2013-07-06 16:32:00,
2013-07-06 12:37:00,79.1,73.2,30.99,SSE,166,3.0,7.0,82,0.00,CLR,CLR,0.01,WeatherDisplay:10.37,2013-07-06 16:37:00,
2013-07-06 12:42:00,79.2,72.1,30.99,South,188,2.0,7.0,79,0.00,CLR,CLR,0.01,WeatherDisplay:10.37,2013-07-06 16:42:00,
2013-07-06 12:52:00,79.5,73.5,30.98,South,183,2.0,8.0,82,0.00,CLR,CLR,0.01,WeatherDisplay:10.37,2013-07-06 16:52:00,
2013-07-06 13:02:00,80.5,73.4,30.98,South,175,0.0,8.0,79,0.00,CLR,CLR,0.01,WeatherDisplay:10.37,2013-07-06 17:02:00,
2013-07-06 13:07:00,80.8,73.3,30.98,SSE,150,3.0,12.0,78,0.00,CLR,CLR,0.01,WeatherDisplay:10.37,2013-07-06 17:07:00,
2013-07-06 13:12:00,80.8,72.5,30.98,SE,134,0.0,5.0,76,0.00,CLR,CLR,0.01,WeatherDisplay:10.37,2013-07-06 17:12:00,
2013-07-06 13:22:00,81.0,72.7,30.97,SSE,155,2.0,9.0,76,0.00,CLR,CLR,0.01,WeatherDisplay:10.37,2013-07-06 17:22:00,
2013-07-06 13:27:00,81.3,73.8,30.97,SSE,166,6.0,12.0,78,0.00,CLR,CLR,0.01,WeatherDisplay:10.37,2013-07-06 17:27:00,
2013-07-06 13:32:00,81.3,73.0,30.97,SSE,167,1.0,8.0,76,0.00,CLR,CLR,0.01,WeatherDisplay:10.37,2013-07-06 17:32:00,
2013-07-06 13:47:00,81.4,73.1,30.97,South,179,3.0,7.0,76,0.00,CLR,CLR,0.01,WeatherDisplay:10.37,2013-07-06 17:47:00,
2013-07-06 13:52:00,81.6,72.9,30.96,South,169,1.0,5.0,75,0.00,CLR,CLR,0.01,WeatherDisplay:10.37,2013-07-06 17:52:00,
2013-07-06 14:02:00,82.1,73.8,30.96,SSW,194,3.0,8.0,76,0.00,CLR,CLR,0.01,WeatherDisplay:10.37,2013-07-06 18:02:00,
2013-07-06 14:07:00,82.2,73.8,30.96,SSW,195,6.0,9.0,76,0.00,CLR,CLR,0.01,WeatherDisplay:10.37,2013-07-06 18:07:00,
2013-07-06 14:12:00,82.2,72.3,30.96,SSE,165,5.0,8.0,72,0.00,CLR,CLR,0.01,WeatherDisplay:10.37,2013-07-06 18:12:00,
2013-07-06 14:17:00,82.5,73.4,30.95,South,176,3.0,7.0,74,0.00,CLR,CLR,0.01,WeatherDisplay:10.37,2013-07-06 18:17:00,
2013-07-06 14:22:00,82.9,73.4,30.95,South,183,7.0,10.0,73,0.00,CLR,CLR,0.01,WeatherDisplay:10.37,2013-07-06 18:22:00,
2013-07-06 14:27:00,83.1,72.3,30.95,South,182,1.0,9.0,70,0.00,CLR,CLR,0.01,WeatherDisplay:10.37,2013-07-06 18:27:00,
2013-07-06 14:52:00,83.5,73.5,30.95,South,187,5.0,12.0,72,0.00,CLR,CLR,0.01,WeatherDisplay:10.37,2013-07-06 18:52:00,
2013-07-06 14:57:00,83.8,74.2,30.94,South,190,6.0,9.0,73,0.00,CLR,CLR,0.01,WeatherDisplay:10.37,2013-07-06 18:57:00,
2013-07-06 15:02:00,83.8,73.8,30.94,South,180,3.0,8.0,72,0.00,CLR,CLR,0.01,WeatherDisplay:10.37,2013-07-06 19:02:00,
2013-07-06 15:07:00,83.7,73.3,30.94,South,170,7.0,10.0,71,0.00,CLR,CLR,0.01,WeatherDisplay:10.37,2013-07-06 19:07:00,
2013-07-06 15:17:00,83.9,72.6,30.93,South,170,5.0,10.0,69,0.00,CLR,CLR,0.01,WeatherDisplay:10.37,2013-07-06 19:17:00,
2013-07-06 15:27:00,83.9,72.2,30.93,South,189,3.0,8.0,68,0.00,CLR,CLR,0.01,WeatherDisplay:10.37,2013-07-06 19:27:00,
2013-07-06 15:37:00,84.5,73.6,30.93,SSW,192,6.0,9.0,70,0.00,CLR,CLR,0.01,WeatherDisplay:10.37,2013-07-06 19:37:00,
2013-07-06 15:42:00,84.6,73.7,30.93,SSW,209,5.0,9.0,70,0.00,CLR,CLR,0.01,WeatherDisplay:10.37,2013-07-06 19:42:00,
2013-07-06 15:47:00,84.4,74.0,30.93,SW,214,6.0,9.0,71,0.00,CLR,CLR,0.01,WeatherDisplay:10.37,2013-07-06 19:47:00,
2013-07-06 15:52:00,84.5,73.6,30.92,SSW,213,5.0,7.0,70,0.00,CLR,CLR,0.01,WeatherDisplay:10.37,2013-07-06 19:52:00,
2013-07-06 16:02:00,84.8,73.5,30.92,South,188,6.0,9.0,69,0.00,CLR,CLR,0.01,WeatherDisplay:10.37,2013-07-06 20:02:00,
2013-07-06 16:07:00,84.7,73.9,30.92,SSE,160,5.0,12.0,70,0.00,CLR,CLR,0.01,WeatherDisplay:10.37,2013-07-06 20:07:00,
2013-07-06 16:12:00,84.4,73.5,30.92,SSE,158,0.0,2.0,70,0.00,CLR,CLR,0.01,WeatherDisplay:10.37,2013-07-06 20:12:00,
2013-07-06 16:22:00,84.2,73.3,30.92,South,174,1.0,7.0,70,0.00,CLR,CLR,0.01,WeatherDisplay:10.37,2013-07-06 20:22:00,
2013-07-06 16:27:00,84.5,74.5,30.91,South,169,1.0,5.0,72,0.00,CLR,CLR,0.01,WeatherDisplay:10.37,2013-07-06 20:27:00,
2013-07-06 16:32:00,84.9,74.0,30.91,SE,146,2.0,8.0,70,0.00,CLR,CLR,0.01,WeatherDisplay:10.37,2013-07-06 20:32:00,
2013-07-06 16:42:00,84.5,74.1,30.91,ESE,122,0.0,5.0,71,0.00,CLR,CLR,0.01,WeatherDisplay:10.37,2013-07-06 20:42:00,
2013-07-06 16:52:00,83.7,74.5,30.91,ESE,115,0.0,6.0,74,0.00,CLR,CLR,0.01,WeatherDisplay:10.37,2013-07-06 20:52:00,
2013-07-06 17:02:00,84.7,72.5,30.90,South,184,0.0,7.0,67,0.00,CLR,CLR,0.01,WeatherDisplay:10.37,2013-07-06 21:02:00,
2013-07-06 17:07:00,85.3,73.5,30.90,South,186,1.0,6.0,68,0.00,CLR,CLR,0.01,WeatherDisplay:10.37,2013-07-06 21:07:00,
2013-07-06 17:12:00,85.5,73.8,30.89,SSE,163,1.0,5.0,68,0.00,CLR,CLR,0.01,WeatherDisplay:10.37,2013-07-06 21:12:00,
2013-07-06 17:32:00,86.2,73.5,30.89,SSE,168,5.0,7.0,66,0.00,CLR,CLR,0.01,WeatherDisplay:10.37,2013-07-06 21:32:00,
2013-07-06 17:37:00,85.9,72.3,30.89,SSE,163,1.0,6.0,64,0.00,CLR,CLR,0.01,WeatherDisplay:10.37,2013-07-06 21:37:00,
2013-07-06 17:42:00,86.0,72.9,30.89,SSE,157,2.0,6.0,65,0.00,CLR,CLR,0.01,WeatherDisplay:10.37,2013-07-06 21:42:00,
2013-07-06 17:47:00,86.0,73.3,30.89,South,183,5.0,12.0,66,0.00,CLR,CLR,0.01,WeatherDisplay:10.37,2013-07-06 21:47:00,
2013-07-06 17:52:00,85.9,73.3,30.88,SSW,199,3.0,6.0,66,0.00,CLR,CLR,0.01,WeatherDisplay:10.37,2013-07-06 21:52:00,
2013-07-06 17:57:00,86.0,73.8,30.88,SSW,210,3.0,6.0,67,0.00,CLR,CLR,0.01,WeatherDisplay:10.37,2013-07-06 21:57:00,
2013-07-06 18:02:00,85.9,72.8,30.88,SSW,201,6.0,9.0,65,0.00,CLR,CLR,0.01,WeatherDisplay:10.37,2013-07-06 22:02:00,
2013-07-06 18:07:00,85.9,73.7,30.88,South,184,5.0,9.0,67,0.00,CLR,CLR,0.01,WeatherDisplay:10.37,2013-07-06 22:07:00,
2013-07-06 18:17:00,85.7,72.6,30.88,SSE,162,3.0,8.0,65,0.00,CLR,CLR,0.01,WeatherDisplay:10.37,2013-07-06 22:17:00,
2013-07-06 18:22:00,85.6,72.9,30.87,SSE,152,1.0,5.0,66,0.00,CLR,CLR,0.01,WeatherDisplay:10.37,2013-07-06 22:22:00,
2013-07-06 18:27:00,85.6,72.4,30.86,SE,134,2.0,5.0,65,0.00,CLR,CLR,0.01,WeatherDisplay:10.37,2013-07-06 22:27:00,
2013-07-06 18:42:00,84.3,73.1,30.87,SE,134,0.0,1.0,69,0.00,CLR,CLR,0.01,WeatherDisplay:10.37,2013-07-06 22:42:00,
2013-07-06 18:47:00,84.1,73.3,30.87,SE,134,1.0,4.0,70,0.00,CLR,CLR,0.01,WeatherDisplay:10.37,2013-07-06 22:47:00,
2013-07-06 18:52:00,84.0,74.0,30.88,SE,134,0.0,4.0,72,0.00,CLR,CLR,0.01,WeatherDisplay:10.37,2013-07-06 22:52:00,
2013-07-06 19:02:00,82.0,72.8,30.89,SSE,167,12.0,22.0,74,0.00,CLR,CLR,0.01,WeatherDisplay:10.37,2013-07-06 23:02:00,
2013-07-06 19:07:00,79.1,72.7,30.89,South,175,12.0,20.0,81,0.02,RA,RA,0.03,WeatherDisplay:10.37,2013-07-06 23:07:00,
2013-07-06 19:12:00,77.5,72.6,30.88,South,176,1.0,9.0,85,0.04,RA,RA,0.08,WeatherDisplay:10.37,2013-07-06 23:12:00,
2013-07-06 19:22:00,75.8,72.3,30.88,SSE,167,0.0,5.0,89,0.00,,,0.08,WeatherDisplay:10.37,2013-07-06 23:22:00,
2013-07-06 19:27:00,75.3,72.2,30.88,SSE,167,0.0,0.0,90,0.00,CLR,CLR,0.08,WeatherDisplay:10.37,2013-07-06 23:27:00,
2013-07-06 19:32:00,75.0,72.2,30.88,SSE,167,0.0,0.0,91,0.00,CLR,CLR,0.08,WeatherDisplay:10.37,2013-07-06 23:32:00,
2013-07-06 19:37:00,74.8,72.3,30.88,SSE,167,0.0,0.0,92,0.00,CLR,CLR,0.08,WeatherDisplay:10.37,2013-07-06 23:37:00,
2013-07-06 19:42:00,74.6,72.1,30.88,SSE,167,0.0,0.0,92,0.00,CLR,CLR,0.08,WeatherDisplay:10.37,2013-07-06 23:42:00,
2013-07-06 19:47:00,74.5,72.3,30.88,SSE,167,0.0,0.0,93,0.00,CLR,CLR,0.08,WeatherDisplay:10.37,2013-07-06 23:47:00,
2013-07-06 20:02:00,74.6,72.8,30.88,SSE,167,0.0,0.0,94,0.00,CLR,CLR,0.08,WeatherDisplay:10.37,2013-07-07 00:02:00,
2013-07-06 20:07:00,74.6,72.7,30.88,SSE,167,0.0,0.0,94,0.00,CLR,CLR,0.08,WeatherDisplay:10.37,2013-07-07 00:07:00,
2013-07-06 20:17:00,74.7,73.2,30.87,SSE,167,0.0,0.0,95,0.00,CLR,CLR,0.08,WeatherDisplay:10.37,2013-07-07 00:17:00,
2013-07-06 20:32:00,74.5,73.0,30.87,SSE,167,0.0,0.0,95,0.00,CLR,CLR,0.08,WeatherDisplay:10.37,2013-07-07 00:32:00,
2013-07-06 20:37:00,74.4,72.9,30.87,SSE,167,0.0,0.0,95,0.00,CLR,CLR,0.08,WeatherDisplay:10.37,2013-07-07 00:37:00,
2013-07-06 20:47:00,74.4,73.2,30.87,SSE,167,0.0,1.0,96,0.00,CLR,CLR,0.08,WeatherDisplay:10.37,2013-07-07 00:47:00,
2013-07-06 20:52:00,74.4,73.2,30.88,SSE,167,0.0,0.0,96,0.00,CLR,CLR,0.08,WeatherDisplay:10.37,2013-07-07 00:52:00,
2013-07-06 20:57:00,74.3,73.1,30.87,SSE,167,0.0,0.0,96,0.00,CLR,CLR,0.08,WeatherDisplay:10.37,2013-07-07 00:57:00,
2013-07-06 21:02:00,74.2,72.7,30.87,SSE,167,0.0,0.0,95,0.00,CLR,CLR,0.08,WeatherDisplay:10.37,2013-07-07 01:02:00,
2013-07-06 21:07:00,74.1,72.6,30.87,SSE,167,0.0,0.0,95,0.00,CLR,CLR,0.08,WeatherDisplay:10.37,2013-07-07 01:07:00,
2013-07-06 21:12:00,74.0,72.4,30.87,SSE,167,0.0,0.0,95,0.00,CLR,CLR,0.08,WeatherDisplay:10.37,2013-07-07 01:12:00,
2013-07-06 21:17:00,73.8,72.6,30.87,SSE,167,0.0,0.0,96,0.00,CLR,CLR,0.08,WeatherDisplay:10.37,2013-07-07 01:17:00,
2013-07-06 21:22:00,73.8,72.6,30.87,SSE,167,0.0,0.0,96,0.00,CLR,CLR,0.08,WeatherDisplay:10.37,2013-07-07 01:22:00,
2013-07-06 21:32:00,73.8,72.6,30.88,SSE,167,0.0,0.0,96,0.00,CLR,CLR,0.08,WeatherDisplay:10.37,2013-07-07 01:32:00,
2013-07-06 21:47:00,73.9,72.7,30.89,SSE,167,0.0,2.0,96,0.00,CLR,CLR,0.09,WeatherDisplay:10.37,2013-07-07 01:47:00,
2013-07-06 21:52:00,74.1,73.2,30.90,South,171,2.0,6.0,97,0.00,CLR,CLR,0.09,WeatherDisplay:10.37,2013-07-07 01:52:00,
2013-07-06 21:57:00,74.1,72.9,30.90,South,184,7.0,12.0,96,0.00,CLR,CLR,0.09,WeatherDisplay:10.37,2013-07-07 01:57:00,
2013-07-06 22:07:00,74.3,72.8,30.91,South,172,6.0,9.0,95,0.00,CLR,CLR,0.09,WeatherDisplay:10.37,2013-07-07 02:07:00,
2013-07-06 22:12:00,74.3,72.8,30.91,SSE,167,3.0,8.0,95,0.00,CLR,CLR,0.09,WeatherDisplay:10.37,2013-07-07 02:12:00,
2013-07-06 22:17:00,74.3,72.5,30.91,South,177,6.0,7.0,94,0.00,CLR,CLR,0.09,WeatherDisplay:10.37,2013-07-07 02:17:00,
2013-07-06 22:22:00,74.3,72.5,30.91,South,191,5.0,8.0,94,0.00,CLR,CLR,0.09,WeatherDisplay:10.37,2013-07-07 02:22:00,
2013-07-06 22:27:00,74.2,72.4,30.91,South,186,3.0,7.0,94,0.00,CLR,CLR,0.09,WeatherDisplay:10.37,2013-07-07 02:27:00,
2013-07-06 22:37:00,74.0,71.8,30.91,South,179,6.0,8.0,93,0.00,CLR,CLR,0.09,WeatherDisplay:10.37,2013-07-07 02:37:00,
2013-07-06 22:42:00,73.9,72.1,30.91,South,179,5.0,6.0,94,0.00,CLR,CLR,0.09,WeatherDisplay:10.37,2013-07-07 02:42:00,
2013-07-06 22:47:00,73.7,71.9,30.91,South,179,3.0,6.0,94,0.00,CLR,CLR,0.09,WeatherDisplay:10.37,2013-07-07 02:47:00,
2013-07-06 22:52:00,73.5,71.6,30.91,South,179,0.0,5.0,94,0.00,CLR,CLR,0.09,WeatherDisplay:10.37,2013-07-07 02:52:00,
2013-07-06 22:57:00,73.3,71.5,30.91,South,179,0.0,2.0,94,0.00,CLR,CLR,0.09,WeatherDisplay:10.37,2013-07-07 02:57:00,
2013-07-06 23:02:00,73.0,71.2,30.91,South,179,0.0,2.0,94,0.00,CLR,CLR,0.09,WeatherDisplay:10.37,2013-07-07 03:02:00,
2013-07-06 23:07:00,72.9,71.1,30.91,South,179,0.0,0.0,94,0.00,CLR,CLR,0.09,WeatherDisplay:10.37,2013-07-07 03:07:00,
2013-07-06 23:12:00,72.7,70.9,30.91,South,179,0.0,1.0,94,0.00,CLR,CLR,0.09,WeatherDisplay:10.37,2013-07-07 03:12:00,
2013-07-06 23:22:00,72.4,70.9,30.91,South,179,0.0,1.0,95,0.00,CLR,CLR,0.09,WeatherDisplay:10.37,2013-07-07 03:22:00,
2013-07-06 23:37:00,72.2,70.7,30.91,South,179,0.0,0.0,95,0.00,CLR,CLR,0.09,WeatherDisplay:10.37,2013-07-07 03:37:00,
2013-07-06 23:42:00,72.1,70.6,30.91,South,179,0.0,1.0,95,0.00,CLR,CLR,0.09,WeatherDisplay:10.37,2013-07-07 03:42:00,
2013-07-06 23:47:00,72.0,70.5,30.91,South,179,0.0,2.0,95,0.00,CLR,CLR,0.09,WeatherDisplay:10.37,2013-07-07 03:47:00,
2013-07-06 23:52:00,71.9,70.4,30.91,South,179,0.0,4.0,95,0.00,CLR,CLR,0.09,WeatherDisplay:10.37,2013-07-07 03:52:00,